Rock Quarry, Louisiana
Current Conditions -  °F | °C
As of 4:53 PM on Monday 20 Oct 2014 (Local Time) from KAEX Reporting Station
Clear Clear  
Wind Chill: 76°   Ceiling: Unl
Heat Index: 76°   Visibility: 10mi
Dew Point: 50°   Wind: 5mph
Humidity: 40%   Direction: 20°NNE
Pressure: 30"   Gusts: NA
Location:  31.4254°N, 92.7765°W
Report Text: KAEX 202153Z 02004KT 10SM CLR 24/10 A3000 RMK AO2 SLP161 T02440100
Loading
Personal Weather Stations






























Interactive Weather Map
Tropical Storm Tracking
New forecast layout! Learn more

10-Day Weather Forecast

Advertisements
Track Severe Weather on mobile